sensor_id;sensor_type;location;lat;lon;timestamp;P1;durP1;ratioP1;P2;durP2;ratioP2
22955;SDS011;40888;48.148;11.526;2022-11-11T00:01:00;3.97;;;2.93;;
22955;SDS011;40888;48.148;11.526;2022-11-11T00:03:26;3.50;;;3.13;;
22955;SDS011;40888;48.148;11.526;2022-11-11T00:05:52;4.33;;;3.93;;
22955;SDS011;40888;48.148;11.526;2022-11-11T00:08:19;4.50;;;3.57;;
22955;SDS011;40888;48.148;11.526;2022-11-11T00:10:45;4.83;;;3.40;;
22955;SDS011;40888;48.148;11.526;2022-11-11T00:13:11;5.70;;;3.90;;
22955;SDS011;40888;48.148;11.526;2022-11-11T00:15:37;4.53;;;3.60;;
22955;SDS011;40888;48.148;11.526;2022-11-11T00:18:04;5.53;;;3.57;;
22955;SDS011;40888;48.148;11.526;2022-11-11T00:20:49;4.10;;;3.73;;
22955;SDS011;40888;48.148;11.526;2022-11-11T00:23:34;3.90;;;3.33;;
22955;SDS011;40888;48.148;11.526;2022-11-11T00:26:19;4.50;;;3.13;;
22955;SDS011;40888;48.148;11.526;2022-11-11T00:28:45;4.23;;;3.67;;
22955;SDS011;40888;48.148;11.526;2022-11-11T00:31:12;5.50;;;3.30;;
22955;SDS011;40888;48.148;11.526;2022-11-11T00:33:39;4.93;;;3.57;;
22955;SDS011;40888;48.148;11.526;2022-11-11T00:36:06;4.90;;;3.43;;
22955;SDS011;40888;48.148;11.526;2022-11-11T00:38:32;4.33;;;3.30;;
22955;SDS011;40888;48.148;11.526;2022-11-11T00:41:12;3.63;;;3.33;;
22955;SDS011;40888;48.148;11.526;2022-11-11T00:43:39;4.80;;;3.70;;
22955;SDS011;40888;48.148;11.526;2022-11-11T00:46:05;4.00;;;3.30;;
22955;SDS011;40888;48.148;11.526;2022-11-11T00:48:50;4.30;;;3.40;;
22955;SDS011;40888;48.148;11.526;2022-11-11T00:51:35;4.83;;;3.70;;
22955;SDS011;40888;48.148;11.526;2022-11-11T00:54:01;3.80;;;3.10;;
22955;SDS011;40888;48.148;11.526;2022-11-11T00:56:27;4.57;;;3.43;;
22955;SDS011;40888;48.148;11.526;2022-11-11T00:58:53;3.50;;;3.20;;
22955;SDS011;40888;48.148;11.526;2022-11-11T01:01:20;4.10;;;3.40;;
22955;SDS011;40888;48.148;11.526;2022-11-11T01:03:46;3.27;;;3.07;;
22955;SDS011;40888;48.148;11.526;2022-11-11T01:06:12;3.27;;;2.97;;
22955;SDS011;40888;48.148;11.526;2022-11-11T01:08:38;4.53;;;3.27;;
22955;SDS011;40888;48.148;11.526;2022-11-11T01:11:12;4.57;;;3.10;;
22955;SDS011;40888;48.148;11.526;2022-11-11T01:13:39;3.57;;;3.27;;
22955;SDS011;40888;48.148;11.526;2022-11-11T01:16:06;3.33;;;3.00;;
22955;SDS011;40888;48.148;11.526;2022-11-11T01:18:33;3.40;;;3.10;;
22955;SDS011;40888;48.148;11.526;2022-11-11T01:21:01;4.80;;;3.20;;
22955;SDS011;40888;48.148;11.526;2022-11-11T01:23:29;3.80;;;3.40;;
22955;SDS011;40888;48.148;11.526;2022-11-11T01:26:00;3.33;;;2.90;;
22955;SDS011;40888;48.148;11.526;2022-11-11T01:28:26;3.77;;;3.33;;
22955;SDS011;40888;48.148;11.526;2022-11-11T01:30:52;3.40;;;3.10;;
22955;SDS011;40888;48.148;11.526;2022-11-11T01:33:18;4.43;;;2.83;;
22955;SDS011;40888;48.148;11.526;2022-11-11T01:35:44;4.07;;;3.33;;
22955;SDS011;40888;48.148;11.526;2022-11-11T01:38:11;3.20;;;2.90;;
22955;SDS011;40888;48.148;11.526;2022-11-11T01:40:43;3.17;;;2.87;;
22955;SDS011;40888;48.148;11.526;2022-11-11T01:51:10;3.23;;;2.73;;
22955;SDS011;40888;48.148;11.526;2022-11-11T01:53:37;3.00;;;2.70;;
22955;SDS011;40888;48.148;11.526;2022-11-11T01:56:04;4.83;;;2.80;;
22955;SDS011;40888;48.148;11.526;2022-11-11T01:58:30;3.40;;;2.87;;
22955;SDS011;40888;48.148;11.526;2022-11-11T02:00:57;6.17;;;3.07;;
22955;SDS011;40888;48.148;11.526;2022-11-11T02:03:24;4.83;;;2.83;;
22955;SDS011;40888;48.148;11.526;2022-11-11T02:05:51;3.67;;;2.83;;
22955;SDS011;40888;48.148;11.526;2022-11-11T02:08:20;3.27;;;2.97;;
22955;SDS011;40888;48.148;11.526;2022-11-11T02:11:10;5.03;;;3.30;;
22955;SDS011;40888;48.148;11.526;2022-11-11T02:13:37;4.67;;;3.10;;
22955;SDS011;40888;48.148;11.526;2022-11-11T02:16:22;3.73;;;3.00;;
22955;SDS011;40888;48.148;11.526;2022-11-11T02:18:49;4.00;;;3.10;;
22955;SDS011;40888;48.148;11.526;2022-11-11T02:21:23;2.73;;;2.53;;
22955;SDS011;40888;48.148;11.526;2022-11-11T02:26:19;3.30;;;3.00;;
22955;SDS011;40888;48.148;11.526;2022-11-11T02:28:47;4.40;;;2.60;;
22955;SDS011;40888;48.148;11.526;2022-11-11T02:31:13;3.80;;;3.10;;
22955;SDS011;40888;48.148;11.526;2022-11-11T02:33:40;4.07;;;2.93;;
22955;SDS011;40888;48.148;11.526;2022-11-11T02:36:07;4.70;;;3.10;;
22955;SDS011;40888;48.148;11.526;2022-11-11T02:38:35;4.13;;;3.27;;
22955;SDS011;40888;48.148;11.526;2022-11-11T02:41:01;4.97;;;3.30;;
22955;SDS011;40888;48.148;11.526;2022-11-11T02:43:46;5.53;;;3.23;;
22955;SDS011;40888;48.148;11.526;2022-11-11T02:46:13;4.87;;;3.17;;
22955;SDS011;40888;48.148;11.526;2022-11-11T02:48:39;4.23;;;3.33;;
22955;SDS011;40888;48.148;11.526;2022-11-11T02:51:05;4.23;;;3.60;;
22955;SDS011;40888;48.148;11.526;2022-11-11T02:53:32;5.40;;;3.60;;
22955;SDS011;40888;48.148;11.526;2022-11-11T02:55:59;4.27;;;3.20;;
22955;SDS011;40888;48.148;11.526;2022-11-11T02:58:25;6.47;;;3.53;;
22955;SDS011;40888;48.148;11.526;2022-11-11T03:00:51;4.70;;;3.53;;
22955;SDS011;40888;48.148;11.526;2022-11-11T03:03:17;4.40;;;3.57;;
22955;SDS011;40888;48.148;11.526;2022-11-11T03:05:43;5.37;;;3.37;;
22955;SDS011;40888;48.148;11.526;2022-11-11T03:08:09;4.43;;;3.53;;
22955;SDS011;40888;48.148;11.526;2022-11-11T03:10:35;6.67;;;4.37;;
22955;SDS011;40888;48.148;11.526;2022-11-11T03:13:02;5.23;;;3.93;;
22955;SDS011;40888;48.148;11.526;2022-11-11T03:15:28;4.57;;;4.00;;
22955;SDS011;40888;48.148;11.526;2022-11-11T03:17:54;4.70;;;4.17;;
22955;SDS011;40888;48.148;11.526;2022-11-11T03:20:20;5.07;;;4.20;;
22955;SDS011;40888;48.148;11.526;2022-11-11T03:23:06;4.60;;;4.00;;
22955;SDS011;40888;48.148;11.526;2022-11-11T03:25:32;5.27;;;4.30;;
22955;SDS011;40888;48.148;11.526;2022-11-11T03:28:03;5.67;;;4.20;;
22955;SDS011;40888;48.148;11.526;2022-11-11T03:30:29;5.00;;;4.50;;
22955;SDS011;40888;48.148;11.526;2022-11-11T03:32:56;6.03;;;3.87;;
22955;SDS011;40888;48.148;11.526;2022-11-11T03:35:22;6.10;;;4.23;;
22955;SDS011;40888;48.148;11.526;2022-11-11T03:37:48;5.63;;;4.30;;
22955;SDS011;40888;48.148;11.526;2022-11-11T03:40:33;5.37;;;4.00;;
22955;SDS011;40888;48.148;11.526;2022-11-11T03:42:59;4.40;;;3.80;;
22955;SDS011;40888;48.148;11.526;2022-11-11T03:45:25;5.03;;;4.27;;
22955;SDS011;40888;48.148;11.526;2022-11-11T03:47:52;6.37;;;4.10;;
22955;SDS011;40888;48.148;11.526;2022-11-11T03:50:19;4.20;;;3.77;;
22955;SDS011;40888;48.148;11.526;2022-11-11T03:52:45;5.00;;;3.60;;
22955;SDS011;40888;48.148;11.526;2022-11-11T03:55:12;4.80;;;3.23;;
22955;SDS011;40888;48.148;11.526;2022-11-11T03:57:42;3.80;;;3.10;;
22955;SDS011;40888;48.148;11.526;2022-11-11T04:00:10;3.00;;;2.67;;
22955;SDS011;40888;48.148;11.526;2022-11-11T04:02:37;2.83;;;2.57;;
22955;SDS011;40888;48.148;11.526;2022-11-11T04:05:21;3.83;;;2.97;;
22955;SDS011;40888;48.148;11.526;2022-11-11T04:08:13;3.07;;;2.43;;
22955;SDS011;40888;48.148;11.526;2022-11-11T04:10:59;3.07;;;2.87;;
22955;SDS011;40888;48.148;11.526;2022-11-11T04:13:26;4.60;;;2.63;;
22955;SDS011;40888;48.148;11.526;2022-11-11T04:16:11;3.90;;;2.77;;
22955;SDS011;40888;48.148;11.526;2022-11-11T04:18:37;3.70;;;2.50;;
22955;SDS011;40888;48.148;11.526;2022-11-11T04:21:23;2.80;;;2.53;;
22955;SDS011;40888;48.148;11.526;2022-11-11T04:24:19;2.50;;;2.30;;
22955;SDS011;40888;48.148;11.526;2022-11-11T04:27:08;2.50;;;2.27;;
22955;SDS011;40888;48.148;11.526;2022-11-11T04:29:34;2.43;;;2.23;;
22955;SDS011;40888;48.148;11.526;2022-11-11T04:32:01;2.50;;;2.17;;
22955;SDS011;40888;48.148;11.526;2022-11-11T04:34:47;3.67;;;2.33;;
22955;SDS011;40888;48.148;11.526;2022-11-11T04:37:14;2.40;;;2.20;;
22955;SDS011;40888;48.148;11.526;2022-11-11T04:39:40;2.43;;;2.23;;
22955;SDS011;40888;48.148;11.526;2022-11-11T04:42:26;3.83;;;2.50;;
22955;SDS011;40888;48.148;11.526;2022-11-11T04:44:52;2.50;;;2.30;;
22955;SDS011;40888;48.148;11.526;2022-11-11T04:47:38;3.67;;;2.30;;
22955;SDS011;40888;48.148;11.526;2022-11-11T04:50:04;3.00;;;2.43;;
22955;SDS011;40888;48.148;11.526;2022-11-11T04:52:31;2.90;;;2.57;;
22955;SDS011;40888;48.148;11.526;2022-11-11T04:54:58;3.80;;;2.57;;
22955;SDS011;40888;48.148;11.526;2022-11-11T04:57:46;4.43;;;2.70;;
22955;SDS011;40888;48.148;11.526;2022-11-11T05:00:14;3.07;;;2.40;;
22955;SDS011;40888;48.148;11.526;2022-11-11T05:02:40;2.43;;;2.20;;
22955;SDS011;40888;48.148;11.526;2022-11-11T05:05:26;2.43;;;2.23;;
22955;SDS011;40888;48.148;11.526;2022-11-11T05:07:52;2.50;;;2.10;;
22955;SDS011;40888;48.148;11.526;2022-11-11T05:10:37;2.83;;;2.53;;
22955;SDS011;40888;48.148;11.526;2022-11-11T05:13:04;2.97;;;2.77;;
22955;SDS011;40888;48.148;11.526;2022-11-11T05:15:48;2.83;;;2.53;;
22955;SDS011;40888;48.148;11.526;2022-11-11T05:18:33;2.70;;;2.50;;
22955;SDS011;40888;48.148;11.526;2022-11-11T05:21:19;2.97;;;2.40;;
22955;SDS011;40888;48.148;11.526;2022-11-11T05:23:47;3.53;;;2.87;;
22955;SDS011;40888;48.148;11.526;2022-11-11T05:26:32;2.90;;;2.70;;
22955;SDS011;40888;48.148;11.526;2022-11-11T05:28:59;5.67;;;2.30;;
22955;SDS011;40888;48.148;11.526;2022-11-11T05:31:25;2.90;;;2.57;;
22955;SDS011;40888;48.148;11.526;2022-11-11T05:33:51;3.00;;;2.70;;
22955;SDS011;40888;48.148;11.526;2022-11-11T05:36:17;3.53;;;2.80;;
22955;SDS011;40888;48.148;11.526;2022-11-11T05:38:44;2.80;;;2.60;;
22955;SDS011;40888;48.148;11.526;2022-11-11T05:41:10;3.23;;;2.83;;
22955;SDS011;40888;48.148;11.526;2022-11-11T05:43:36;3.27;;;2.50;;
22955;SDS011;40888;48.148;11.526;2022-11-11T05:46:02;4.30;;;2.40;;
22955;SDS011;40888;48.148;11.526;2022-11-11T05:48:29;3.27;;;2.67;;
22955;SDS011;40888;48.148;11.526;2022-11-11T05:50:58;3.57;;;2.93;;
22955;SDS011;40888;48.148;11.526;2022-11-11T05:53:24;3.87;;;3.00;;
22955;SDS011;40888;48.148;11.526;2022-11-11T05:55:50;4.43;;;2.70;;
22955;SDS011;40888;48.148;11.526;2022-11-11T05:58:17;4.07;;;3.07;;
22955;SDS011;40888;48.148;11.526;2022-11-11T06:00:44;4.43;;;2.87;;
22955;SDS011;40888;48.148;11.526;2022-11-11T06:03:10;4.37;;;3.00;;
22955;SDS011;40888;48.148;11.526;2022-11-11T06:05:36;5.63;;;3.17;;
22955;SDS011;40888;48.148;11.526;2022-11-11T06:08:03;3.50;;;3.10;;
22955;SDS011;40888;48.148;11.526;2022-11-11T06:10:29;2.83;;;2.63;;
22955;SDS011;40888;48.148;11.526;2022-11-11T06:12:56;3.57;;;2.77;;
22955;SDS011;40888;48.148;11.526;2022-11-11T06:15:38;4.53;;;3.10;;
22955;SDS011;40888;48.148;11.526;2022-11-11T06:18:05;4.70;;;2.97;;
22955;SDS011;40888;48.148;11.526;2022-11-11T06:20:32;5.77;;;3.10;;
22955;SDS011;40888;48.148;11.526;2022-11-11T06:23:00;2.60;;;2.40;;
22955;SDS011;40888;48.148;11.526;2022-11-11T06:25:27;4.03;;;2.90;;
22955;SDS011;40888;48.148;11.526;2022-11-11T06:28:12;5.03;;;3.43;;
22955;SDS011;40888;48.148;11.526;2022-11-11T06:30:39;7.17;;;3.60;;
22955;SDS011;40888;48.148;11.526;2022-11-11T06:33:05;8.87;;;4.47;;
22955;SDS011;40888;48.148;11.526;2022-11-11T06:35:38;5.70;;;3.50;;
22955;SDS011;40888;48.148;11.526;2022-11-11T06:38:05;6.70;;;4.13;;
22955;SDS011;40888;48.148;11.526;2022-11-11T06:40:31;6.10;;;3.83;;
22955;SDS011;40888;48.148;11.526;2022-11-11T06:42:58;6.03;;;3.83;;
22955;SDS011;40888;48.148;11.526;2022-11-11T06:45:25;7.60;;;3.80;;
22955;SDS011;40888;48.148;11.526;2022-11-11T06:47:51;5.40;;;4.03;;
22955;SDS011;40888;48.148;11.526;2022-11-11T06:50:18;9.63;;;4.23;;
22955;SDS011;40888;48.148;11.526;2022-11-11T06:52:44;7.47;;;4.03;;
22955;SDS011;40888;48.148;11.526;2022-11-11T06:55:10;5.50;;;4.10;;
22955;SDS011;40888;48.148;11.526;2022-11-11T06:57:37;8.13;;;4.17;;
22955;SDS011;40888;48.148;11.526;2022-11-11T07:00:03;7.30;;;4.33;;
22955;SDS011;40888;48.148;11.526;2022-11-11T07:02:30;4.70;;;4.27;;
22955;SDS011;40888;48.148;11.526;2022-11-11T07:04:56;4.90;;;4.40;;
22955;SDS011;40888;48.148;11.526;2022-11-11T07:07:22;4.70;;;4.23;;
22955;SDS011;40888;48.148;11.526;2022-11-11T07:09:48;7.70;;;4.70;;
22955;SDS011;40888;48.148;11.526;2022-11-11T07:12:14;7.50;;;4.87;;
22955;SDS011;40888;48.148;11.526;2022-11-11T07:14:41;6.03;;;5.00;;
22955;SDS011;40888;48.148;11.526;2022-11-11T07:17:07;7.07;;;5.17;;
22955;SDS011;40888;48.148;11.526;2022-11-11T07:19:33;5.83;;;4.97;;
22955;SDS011;40888;48.148;11.526;2022-11-11T07:21:59;6.60;;;5.37;;
22955;SDS011;40888;48.148;11.526;2022-11-11T07:24:25;6.67;;;5.93;;
22955;SDS011;40888;48.148;11.526;2022-11-11T07:26:51;6.97;;;5.83;;
22955;SDS011;40888;48.148;11.526;2022-11-11T07:29:18;8.77;;;5.30;;
22955;SDS011;40888;48.148;11.526;2022-11-11T07:31:44;7.00;;;5.43;;
22955;SDS011;40888;48.148;11.526;2022-11-11T07:34:10;9.17;;;5.70;;
22955;SDS011;40888;48.148;11.526;2022-11-11T07:36:36;7.23;;;5.60;;
22955;SDS011;40888;48.148;11.526;2022-11-11T07:39:03;7.03;;;5.63;;
22955;SDS011;40888;48.148;11.526;2022-11-11T07:41:30;7.57;;;6.17;;
22955;SDS011;40888;48.148;11.526;2022-11-11T07:43:56;8.17;;;6.23;;
22955;SDS011;40888;48.148;11.526;2022-11-11T07:46:22;10.40;;;5.70;;
22955;SDS011;40888;48.148;11.526;2022-11-11T07:48:48;5.93;;;5.30;;
22955;SDS011;40888;48.148;11.526;2022-11-11T07:51:14;6.27;;;5.63;;
22955;SDS011;40888;48.148;11.526;2022-11-11T07:53:40;6.83;;;5.40;;
22955;SDS011;40888;48.148;11.526;2022-11-11T07:56:07;11.60;;;5.93;;
22955;SDS011;40888;48.148;11.526;2022-11-11T07:58:33;11.70;;;6.27;;
22955;SDS011;40888;48.148;11.526;2022-11-11T08:00:59;10.33;;;6.20;;
22955;SDS011;40888;48.148;11.526;2022-11-11T08:03:25;10.97;;;6.07;;
22955;SDS011;40888;48.148;11.526;2022-11-11T08:05:51;9.90;;;6.07;;
22955;SDS011;40888;48.148;11.526;2022-11-11T08:08:19;10.73;;;6.07;;
22955;SDS011;40888;48.148;11.526;2022-11-11T08:10:52;11.10;;;5.37;;
22955;SDS011;40888;48.148;11.526;2022-11-11T08:13:19;7.50;;;5.80;;
22955;SDS011;40888;48.148;11.526;2022-11-11T08:16:03;8.43;;;5.90;;
22955;SDS011;40888;48.148;11.526;2022-11-11T08:18:31;7.40;;;5.07;;
22955;SDS011;40888;48.148;11.526;2022-11-11T08:20:58;6.93;;;5.53;;
22955;SDS011;40888;48.148;11.526;2022-11-11T08:23:24;10.93;;;5.80;;
22955;SDS011;40888;48.148;11.526;2022-11-11T08:25:57;10.17;;;5.63;;
22955;SDS011;40888;48.148;11.526;2022-11-11T08:28:24;7.90;;;5.40;;
22955;SDS011;40888;48.148;11.526;2022-11-11T08:30:50;8.30;;;5.80;;
22955;SDS011;40888;48.148;11.526;2022-11-11T08:33:16;7.87;;;6.00;;
22955;SDS011;40888;48.148;11.526;2022-11-11T08:35:43;8.00;;;5.30;;
22955;SDS011;40888;48.148;11.526;2022-11-11T08:38:09;11.97;;;6.03;;
22955;SDS011;40888;48.148;11.526;2022-11-11T08:40:35;6.47;;;5.77;;
22955;SDS011;40888;48.148;11.526;2022-11-11T08:43:01;7.53;;;5.13;;
22955;SDS011;40888;48.148;11.526;2022-11-11T08:45:27;8.87;;;5.30;;
22955;SDS011;40888;48.148;11.526;2022-11-11T08:47:54;7.77;;;4.47;;
22955;SDS011;40888;48.148;11.526;2022-11-11T08:50:20;7.27;;;4.30;;
22955;SDS011;40888;48.148;11.526;2022-11-11T08:52:46;7.17;;;4.20;;
22955;SDS011;40888;48.148;11.526;2022-11-11T08:55:13;9.93;;;4.30;;
22955;SDS011;40888;48.148;11.526;2022-11-11T08:57:39;7.47;;;4.23;;
22955;SDS011;40888;48.148;11.526;2022-11-11T09:00:06;7.33;;;4.50;;
22955;SDS011;40888;48.148;11.526;2022-11-11T09:02:32;8.47;;;4.60;;
22955;SDS011;40888;48.148;11.526;2022-11-11T09:04:58;8.87;;;4.70;;
22955;SDS011;40888;48.148;11.526;2022-11-11T09:07:25;8.63;;;3.73;;
22955;SDS011;40888;48.148;11.526;2022-11-11T09:09:51;4.80;;;3.87;;
22955;SDS011;40888;48.148;11.526;2022-11-11T09:12:17;6.57;;;4.20;;
22955;SDS011;40888;48.148;11.526;2022-11-11T09:14:43;5.27;;;3.40;;
22955;SDS011;40888;48.148;11.526;2022-11-11T09:17:10;5.90;;;4.03;;
22955;SDS011;40888;48.148;11.526;2022-11-11T09:19:36;6.33;;;3.53;;
22955;SDS011;40888;48.148;11.526;2022-11-11T09:22:02;8.30;;;3.27;;
22955;SDS011;40888;48.148;11.526;2022-11-11T09:24:29;8.07;;;3.70;;
22955;SDS011;40888;48.148;11.526;2022-11-11T09:26:55;7.77;;;3.43;;
22955;SDS011;40888;48.148;11.526;2022-11-11T09:29:21;8.17;;;3.43;;
22955;SDS011;40888;48.148;11.526;2022-11-11T09:31:47;3.67;;;2.60;;
22955;SDS011;40888;48.148;11.526;2022-11-11T09:34:13;4.57;;;2.80;;
22955;SDS011;40888;48.148;11.526;2022-11-11T09:36:40;3.10;;;2.40;;
22955;SDS011;40888;48.148;11.526;2022-11-11T09:39:06;4.87;;;2.43;;
22955;SDS011;40888;48.148;11.526;2022-11-11T09:43:59;2.83;;;2.27;;
22955;SDS011;40888;48.148;11.526;2022-11-11T09:46:35;2.57;;;1.93;;
22955;SDS011;40888;48.148;11.526;2022-11-11T09:51:51;3.30;;;2.03;;
22955;SDS011;40888;48.148;11.526;2022-11-11T09:57:31;2.20;;;2.00;;
22955;SDS011;40888;48.148;11.526;2022-11-11T09:59:59;1.40;;;1.30;;
22955;SDS011;40888;48.148;11.526;2022-11-11T10:02:36;2.67;;;1.63;;
22955;SDS011;40888;48.148;11.526;2022-11-11T10:05:05;2.37;;;1.40;;
22955;SDS011;40888;48.148;11.526;2022-11-11T10:10:23;4.27;;;1.60;;
22955;SDS011;40888;48.148;11.526;2022-11-11T10:12:53;5.03;;;2.20;;
22955;SDS011;40888;48.148;11.526;2022-11-11T10:15:20;2.93;;;2.13;;
22955;SDS011;40888;48.148;11.526;2022-11-11T10:17:54;3.53;;;2.13;;
22955;SDS011;40888;48.148;11.526;2022-11-11T10:20:23;3.93;;;2.10;;
22955;SDS011;40888;48.148;11.526;2022-11-11T10:22:52;3.43;;;2.00;;
22955;SDS011;40888;48.148;11.526;2022-11-11T10:25:23;5.90;;;2.60;;
22955;SDS011;40888;48.148;11.526;2022-11-11T10:27:51;4.73;;;2.07;;
22955;SDS011;40888;48.148;11.526;2022-11-11T10:30:22;2.67;;;2.27;;
22955;SDS011;40888;48.148;11.526;2022-11-11T10:33:02;2.43;;;2.23;;
22955;SDS011;40888;48.148;11.526;2022-11-11T10:35:32;3.53;;;2.13;;
22955;SDS011;40888;48.148;11.526;2022-11-11T10:40:39;2.83;;;2.20;;
22955;SDS011;40888;48.148;11.526;2022-11-11T10:43:10;2.40;;;1.90;;
22955;SDS011;40888;48.148;11.526;2022-11-11T10:48:31;5.38;;;2.45;;
22955;SDS011;40888;48.148;11.526;2022-11-11T10:50:58;2.88;;;2.50;;
22955;SDS011;40888;48.148;11.526;2022-11-11T10:53:30;4.17;;;2.23;;
22955;SDS011;40888;48.148;11.526;2022-11-11T11:01:01;3.50;;;2.10;;
22955;SDS011;40888;48.148;11.526;2022-11-11T11:03:30;2.70;;;2.15;;
22955;SDS011;40888;48.148;11.526;2022-11-11T11:08:47;3.42;;;1.98;;
22955;SDS011;40888;48.148;11.526;2022-11-11T11:11:32;3.80;;;1.90;;
22955;SDS011;40888;48.148;11.526;2022-11-11T11:14:02;3.13;;;2.22;;
22955;SDS011;40888;48.148;11.526;2022-11-11T11:16:32;6.78;;;2.72;;
22955;SDS011;40888;48.148;11.526;2022-11-11T11:19:12;3.42;;;3.10;;
22955;SDS011;40888;48.148;11.526;2022-11-11T11:24:22;4.32;;;3.85;;
22955;SDS011;40888;48.148;11.526;2022-11-11T11:26:50;6.90;;;4.45;;
22955;SDS011;40888;48.148;11.526;2022-11-11T11:29:23;7.93;;;3.58;;
22955;SDS011;40888;48.148;11.526;2022-11-11T11:31:51;5.90;;;4.20;;
22955;SDS011;40888;48.148;11.526;2022-11-11T11:34:17;8.30;;;4.60;;
22955;SDS011;40888;48.148;11.526;2022-11-11T11:36:43;5.65;;;4.55;;
22955;SDS011;40888;48.148;11.526;2022-11-11T11:39:36;5.13;;;4.63;;
22955;SDS011;40888;48.148;11.526;2022-11-11T11:42:03;6.38;;;4.80;;
22955;SDS011;40888;48.148;11.526;2022-11-11T11:47:05;7.22;;;5.10;;
22955;SDS011;40888;48.148;11.526;2022-11-11T11:55:06;5.80;;;5.18;;
22955;SDS011;40888;48.148;11.526;2022-11-11T12:00:25;7.07;;;5.22;;
22955;SDS011;40888;48.148;11.526;2022-11-11T12:13:06;8.80;;;6.10;;
22955;SDS011;40888;48.148;11.526;2022-11-11T12:23:09;10.03;;;5.77;;
22955;SDS011;40888;48.148;11.526;2022-11-11T12:25:45;6.70;;;5.83;;
22955;SDS011;40888;48.148;11.526;2022-11-11T12:31:04;9.10;;;6.00;;
22955;SDS011;40888;48.148;11.526;2022-11-11T12:36:12;7.67;;;6.00;;
22955;SDS011;40888;48.148;11.526;2022-11-11T12:38:57;10.13;;;5.80;;
22955;SDS011;40888;48.148;11.526;2022-11-11T12:41:32;7.38;;;5.10;;
22955;SDS011;40888;48.148;11.526;2022-11-11T12:44:09;7.77;;;5.50;;
22955;SDS011;40888;48.148;11.526;2022-11-11T12:46:41;8.10;;;5.60;;
22955;SDS011;40888;48.148;11.526;2022-11-11T13:10:07;7.35;;;5.53;;
22955;SDS011;40888;48.148;11.526;2022-11-11T13:12:39;7.88;;;5.13;;
22955;SDS011;40888;48.148;11.526;2022-11-11T13:15:21;9.32;;;5.25;;
22955;SDS011;40888;48.148;11.526;2022-11-11T13:17:48;7.47;;;5.50;;
22955;SDS011;40888;48.148;11.526;2022-11-11T13:20:29;8.50;;;5.03;;
22955;SDS011;40888;48.148;11.526;2022-11-11T13:23:00;6.97;;;4.60;;
22955;SDS011;40888;48.148;11.526;2022-11-11T13:25:27;5.95;;;4.78;;
22955;SDS011;40888;48.148;11.526;2022-11-11T13:28:18;6.60;;;4.57;;
22955;SDS011;40888;48.148;11.526;2022-11-11T13:30:45;4.83;;;4.10;;
22955;SDS011;40888;48.148;11.526;2022-11-11T13:33:14;5.80;;;4.60;;
22955;SDS011;40888;48.148;11.526;2022-11-11T13:35:43;5.50;;;4.73;;
22955;SDS011;40888;48.148;11.526;2022-11-11T13:40:56;7.40;;;4.50;;
22955;SDS011;40888;48.148;11.526;2022-11-11T13:43:27;9.00;;;5.10;;
22955;SDS011;40888;48.148;11.526;2022-11-11T13:45:55;5.57;;;4.50;;
22955;SDS011;40888;48.148;11.526;2022-11-11T13:48:30;6.70;;;4.27;;
22955;SDS011;40888;48.148;11.526;2022-11-11T13:51:17;5.37;;;4.87;;
22955;SDS011;40888;48.148;11.526;2022-11-11T13:53:46;7.07;;;4.83;;
22955;SDS011;40888;48.148;11.526;2022-11-11T13:56:18;4.80;;;4.40;;
22955;SDS011;40888;48.148;11.526;2022-11-11T13:58:46;7.23;;;4.67;;
22955;SDS011;40888;48.148;11.526;2022-11-11T14:01:13;5.47;;;4.40;;
22955;SDS011;40888;48.148;11.526;2022-11-11T14:13:50;6.00;;;4.10;;
22955;SDS011;40888;48.148;11.526;2022-11-11T14:24:34;6.40;;;4.63;;
22955;SDS011;40888;48.148;11.526;2022-11-11T14:27:02;4.40;;;4.00;;
22955;SDS011;40888;48.148;11.526;2022-11-11T14:29:29;5.73;;;3.70;;
22955;SDS011;40888;48.148;11.526;2022-11-11T14:32:09;6.70;;;4.10;;
22955;SDS011;40888;48.148;11.526;2022-11-11T14:34:46;4.13;;;3.37;;
22955;SDS011;40888;48.148;11.526;2022-11-11T14:40:00;4.47;;;4.03;;
22955;SDS011;40888;48.148;11.526;2022-11-11T14:45:02;5.10;;;3.80;;
22955;SDS011;40888;48.148;11.526;2022-11-11T14:49:55;5.40;;;3.70;;
22955;SDS011;40888;48.148;11.526;2022-11-11T14:52:39;5.00;;;3.77;;
22955;SDS011;40888;48.148;11.526;2022-11-11T14:55:20;5.47;;;4.00;;
22955;SDS011;40888;48.148;11.526;2022-11-11T15:00:30;7.23;;;3.73;;
22955;SDS011;40888;48.148;11.526;2022-11-11T15:03:06;4.93;;;3.83;;
22955;SDS011;40888;48.148;11.526;2022-11-11T15:08:18;4.27;;;3.83;;
22955;SDS011;40888;48.148;11.526;2022-11-11T15:13:20;4.50;;;4.07;;
22955;SDS011;40888;48.148;11.526;2022-11-11T15:20:56;5.20;;;4.07;;
22955;SDS011;40888;48.148;11.526;2022-11-11T15:23:30;4.00;;;3.50;;
22955;SDS011;40888;48.148;11.526;2022-11-11T15:28:38;3.80;;;3.40;;
22955;SDS011;40888;48.148;11.526;2022-11-11T15:33:42;5.80;;;3.90;;
22955;SDS011;40888;48.148;11.526;2022-11-11T15:38:55;6.83;;;4.10;;
22955;SDS011;40888;48.148;11.526;2022-11-11T15:41:24;4.63;;;4.23;;
22955;SDS011;40888;48.148;11.526;2022-11-11T15:43:51;6.00;;;4.27;;
22955;SDS011;40888;48.148;11.526;2022-11-11T15:46:22;4.07;;;3.70;;
22955;SDS011;40888;48.148;11.526;2022-11-11T15:48:49;6.50;;;4.50;;
22955;SDS011;40888;48.148;11.526;2022-11-11T15:51:17;5.00;;;4.00;;
22955;SDS011;40888;48.148;11.526;2022-11-11T15:53:47;4.53;;;4.13;;
22955;SDS011;40888;48.148;11.526;2022-11-11T15:56:31;5.33;;;4.83;;
22955;SDS011;40888;48.148;11.526;2022-11-11T15:59:06;5.00;;;4.40;;
22955;SDS011;40888;48.148;11.526;2022-11-11T16:01:40;6.30;;;4.60;;
22955;SDS011;40888;48.148;11.526;2022-11-11T16:04:10;5.30;;;4.80;;
22955;SDS011;40888;48.148;11.526;2022-11-11T16:06:39;5.83;;;5.00;;
22955;SDS011;40888;48.148;11.526;2022-11-11T16:09:05;5.33;;;4.83;;
22955;SDS011;40888;48.148;11.526;2022-11-11T16:11:32;5.63;;;5.10;;
22955;SDS011;40888;48.148;11.526;2022-11-11T16:13:59;6.33;;;4.97;;
22955;SDS011;40888;48.148;11.526;2022-11-11T16:16:28;5.93;;;5.33;;
22955;SDS011;40888;48.148;11.526;2022-11-11T16:18:57;7.00;;;5.47;;
22955;SDS011;40888;48.148;11.526;2022-11-11T16:21:31;7.80;;;6.30;;
22955;SDS011;40888;48.148;11.526;2022-11-11T16:24:00;7.70;;;5.80;;
22955;SDS011;40888;48.148;11.526;2022-11-11T16:26:27;7.67;;;6.00;;
22955;SDS011;40888;48.148;11.526;2022-11-11T16:28:57;8.87;;;5.97;;
22955;SDS011;40888;48.148;11.526;2022-11-11T16:37:02;6.93;;;6.20;;
22955;SDS011;40888;48.148;11.526;2022-11-11T16:39:32;8.30;;;6.20;;
22955;SDS011;40888;48.148;11.526;2022-11-11T16:41:59;6.73;;;6.00;;
22955;SDS011;40888;48.148;11.526;2022-11-11T16:44:37;7.47;;;6.23;;
22955;SDS011;40888;48.148;11.526;2022-11-11T16:47:05;6.97;;;5.90;;
22955;SDS011;40888;48.148;11.526;2022-11-11T16:49:35;8.10;;;7.00;;
22955;SDS011;40888;48.148;11.526;2022-11-11T16:52:16;8.00;;;5.90;;
22955;SDS011;40888;48.148;11.526;2022-11-11T16:54:48;8.97;;;7.10;;
22955;SDS011;40888;48.148;11.526;2022-11-11T16:57:23;11.90;;;10.17;;
22955;SDS011;40888;48.148;11.526;2022-11-11T17:00:03;12.37;;;10.90;;
22955;SDS011;40888;48.148;11.526;2022-11-11T17:02:39;12.83;;;9.00;;
22955;SDS011;40888;48.148;11.526;2022-11-11T17:11:10;9.07;;;7.90;;
22955;SDS011;40888;48.148;11.526;2022-11-11T17:13:44;7.67;;;6.87;;
22955;SDS011;40888;48.148;11.526;2022-11-11T17:16:11;11.07;;;7.50;;
22955;SDS011;40888;48.148;11.526;2022-11-11T17:18:38;9.87;;;8.87;;
22955;SDS011;40888;48.148;11.526;2022-11-11T17:21:04;9.87;;;8.87;;
22955;SDS011;40888;48.148;11.526;2022-11-11T17:23:31;8.83;;;8.03;;